sensor_id;sensor_type;location;lat;lon;timestamp;pressure;altitude;pressure_sealevel;temperature;humidity
67980;BME280;54760;47.490;19.030;2022-08-11T00:02:25;100564.84;;;24.56;39.20
67980;BME280;54760;47.490;19.030;2022-08-11T00:04:53;100568.91;;;24.55;39.51
67980;BME280;54760;47.490;19.030;2022-08-11T00:07:20;100566.63;;;24.59;39.05
67980;BME280;54760;47.490;19.030;2022-08-11T00:09:46;100561.28;;;24.50;40.09
67980;BME280;54760;47.490;19.030;2022-08-11T00:12:14;100567.41;;;24.59;39.05
67980;BME280;54760;47.490;19.030;2022-08-11T00:14:40;100558.75;;;24.52;41.31
67980;BME280;54760;47.490;19.030;2022-08-11T00:17:10;100552.37;;;24.51;39.48
67980;BME280;54760;47.490;19.030;2022-08-11T00:19:40;100551.59;;;24.45;38.70
67980;BME280;54760;47.490;19.030;2022-08-11T00:22:08;100548.34;;;24.58;39.70
67980;BME280;54760;47.490;19.030;2022-08-11T00:24:39;100549.25;;;24.33;39.01
67980;BME280;54760;47.490;19.030;2022-08-11T00:27:05;100545.69;;;24.32;41.62
67980;BME280;54760;47.490;19.030;2022-08-11T00:29:32;100547.69;;;24.21;41.08
67980;BME280;54760;47.490;19.030;2022-08-11T00:32:00;100557.59;;;24.22;38.73
67980;BME280;54760;47.490;19.030;2022-08-11T00:34:29;100555.34;;;24.31;38.49
67980;BME280;54760;47.490;19.030;2022-08-11T00:39:32;100545.34;;;24.13;37.59
67980;BME280;54760;47.490;19.030;2022-08-11T00:42:03;100539.75;;;24.13;37.91
67980;BME280;54760;47.490;19.030;2022-08-11T00:45:13;100547.19;;;24.22;41.32
67980;BME280;54760;47.490;19.030;2022-08-11T00:47:59;100549.22;;;24.22;38.70
67980;BME280;54760;47.490;19.030;2022-08-11T01:07:24;100544.50;;;24.02;40.88
67980;BME280;54760;47.490;19.030;2022-08-11T01:10:06;100547.09;;;24.11;42.06
67980;BME280;54760;47.490;19.030;2022-08-11T01:18:55;100541.44;;;24.00;39.77
67980;BME280;54760;47.490;19.030;2022-08-11T01:42:01;100530.09;;;23.72;42.46
67980;BME280;54760;47.490;19.030;2022-08-11T01:51:02;100528.72;;;23.56;40.18
67980;BME280;54760;47.490;19.030;2022-08-11T02:01:56;100528.00;;;23.61;41.25
67980;BME280;54760;47.490;19.030;2022-08-11T02:04:37;100523.66;;;23.55;41.26
67980;BME280;54760;47.490;19.030;2022-08-11T02:13:15;100517.91;;;23.69;42.88
67980;BME280;54760;47.490;19.030;2022-08-11T02:15:50;100512.16;;;23.47;40.36
67980;BME280;54760;47.490;19.030;2022-08-11T02:18:26;100522.41;;;23.61;40.77
67980;BME280;54760;47.490;19.030;2022-08-11T02:21:15;100511.47;;;23.58;42.47
67980;BME280;54760;47.490;19.030;2022-08-11T02:24:07;100514.56;;;23.65;41.98
67980;BME280;54760;47.490;19.030;2022-08-11T02:26:41;100514.75;;;23.56;40.31
67980;BME280;54760;47.490;19.030;2022-08-11T02:29:18;100518.87;;;23.66;42.46
67980;BME280;54760;47.490;19.030;2022-08-11T02:32:04;100516.06;;;23.61;41.94
67980;BME280;54760;47.490;19.030;2022-08-11T02:51:13;100503.81;;;23.21;42.32
67980;BME280;54760;47.490;19.030;2022-08-11T02:56:41;100497.28;;;23.30;41.43
67980;BME280;54760;47.490;19.030;2022-08-11T03:00:06;100499.56;;;23.31;41.69
67980;BME280;54760;47.490;19.030;2022-08-11T03:03:09;100499.41;;;23.09;41.45
67980;BME280;54760;47.490;19.030;2022-08-11T03:07:57;100499.75;;;23.22;42.96
67980;BME280;54760;47.490;19.030;2022-08-11T03:10:34;100506.59;;;23.21;44.48
67980;BME280;54760;47.490;19.030;2022-08-11T03:16:17;100502.72;;;23.13;44.10
67980;BME280;54760;47.490;19.030;2022-08-11T03:19:21;100507.16;;;23.25;40.75
67980;BME280;54760;47.490;19.030;2022-08-11T03:24:32;100506.53;;;23.10;41.51
67980;BME280;54760;47.490;19.030;2022-08-11T03:27:28;100510.88;;;23.17;41.95
67980;BME280;54760;47.490;19.030;2022-08-11T03:30:31;100511.56;;;23.06;44.06
67980;BME280;54760;47.490;19.030;2022-08-11T03:36:14;100514.19;;;22.89;43.32
67980;BME280;54760;47.490;19.030;2022-08-11T03:41:42;100506.41;;;22.99;42.70
67980;BME280;54760;47.490;19.030;2022-08-11T03:52:28;100503.03;;;22.89;43.92
67980;BME280;54760;47.490;19.030;2022-08-11T03:55:14;100513.78;;;22.97;43.37
67980;BME280;54760;47.490;19.030;2022-08-11T04:06:35;100518.13;;;23.03;44.59
67980;BME280;54760;47.490;19.030;2022-08-11T04:21:43;100517.69;;;23.10;42.58
67980;BME280;54760;47.490;19.030;2022-08-11T04:29:54;100518.66;;;23.07;43.99
67980;BME280;54760;47.490;19.030;2022-08-11T04:33:23;100520.75;;;23.12;43.51
67980;BME280;54760;47.490;19.030;2022-08-11T04:40:55;100532.37;;;23.05;46.76
67980;BME280;54760;47.490;19.030;2022-08-11T04:44:18;100530.03;;;23.29;41.45
67980;BME280;54760;47.490;19.030;2022-08-11T04:47:05;100531.28;;;23.28;43.58
67980;BME280;54760;47.490;19.030;2022-08-11T04:50:06;100529.69;;;23.22;44.04
67980;BME280;54760;47.490;19.030;2022-08-11T04:53:26;100526.53;;;23.35;42.69
67980;BME280;54760;47.490;19.030;2022-08-11T04:56:17;100531.09;;;23.38;43.70
67980;BME280;54760;47.490;19.030;2022-08-11T05:00:13;100530.56;;;23.33;41.92
67980;BME280;54760;47.490;19.030;2022-08-11T05:05:54;100523.38;;;23.53;40.60
67980;BME280;54760;47.490;19.030;2022-08-11T05:14:26;100534.09;;;23.60;44.60
67980;BME280;54760;47.490;19.030;2022-08-11T05:17:15;100524.53;;;23.41;41.83
67980;BME280;54760;47.490;19.030;2022-08-11T05:20:09;100532.28;;;23.57;42.82
67980;BME280;54760;47.490;19.030;2022-08-11T05:22:53;100534.09;;;23.60;41.37
67980;BME280;54760;47.490;19.030;2022-08-11T05:25:42;100543.50;;;23.62;40.69
67980;BME280;54760;47.490;19.030;2022-08-11T05:28:33;100541.56;;;23.74;42.13
67980;BME280;54760;47.490;19.030;2022-08-11T05:31:23;100542.63;;;23.82;42.47
67980;BME280;54760;47.490;19.030;2022-08-11T05:34:21;100546.47;;;23.90;41.67
67980;BME280;54760;47.490;19.030;2022-08-11T05:37:13;100550.75;;;23.86;39.56
67980;BME280;54760;47.490;19.030;2022-08-11T05:39:44;100547.03;;;24.00;40.24
67980;BME280;54760;47.490;19.030;2022-08-11T05:42:31;100550.09;;;24.02;39.64
67980;BME280;54760;47.490;19.030;2022-08-11T05:45:17;100551.91;;;24.10;39.97
67980;BME280;54760;47.490;19.030;2022-08-11T05:48:03;100549.56;;;24.46;41.07
67980;BME280;54760;47.490;19.030;2022-08-11T05:50:51;100552.97;;;24.83;39.00
67980;BME280;54760;47.490;19.030;2022-08-11T05:53:46;100546.94;;;25.57;36.86
67980;BME280;54760;47.490;19.030;2022-08-11T05:56:32;100550.72;;;25.87;37.69
67980;BME280;54760;47.490;19.030;2022-08-11T05:58:58;100552.37;;;26.29;35.47
67980;BME280;54760;47.490;19.030;2022-08-11T06:01:26;100552.44;;;26.13;37.02
67980;BME280;54760;47.490;19.030;2022-08-11T06:03:55;100556.34;;;25.54;36.07
67980;BME280;54760;47.490;19.030;2022-08-11T06:07:05;100549.47;;;25.11;36.85
67980;BME280;54760;47.490;19.030;2022-08-11T06:09:36;100551.91;;;26.78;36.58
67980;BME280;54760;47.490;19.030;2022-08-11T06:12:04;100549.44;;;26.63;36.46
67980;BME280;54760;47.490;19.030;2022-08-11T06:14:32;100551.31;;;26.85;36.48
67980;BME280;54760;47.490;19.030;2022-08-11T06:17:00;100544.56;;;27.70;32.43
67980;BME280;54760;47.490;19.030;2022-08-11T06:19:33;100548.63;;;28.41;31.34
67980;BME280;54760;47.490;19.030;2022-08-11T06:22:01;100547.81;;;29.16;31.52
67980;BME280;54760;47.490;19.030;2022-08-11T06:24:27;100551.38;;;30.20;30.25
67980;BME280;54760;47.490;19.030;2022-08-11T06:26:54;100547.31;;;30.88;28.56
67980;BME280;54760;47.490;19.030;2022-08-11T06:29:21;100545.25;;;30.42;28.25
67980;BME280;54760;47.490;19.030;2022-08-11T06:31:53;100540.66;;;31.20;26.82
67980;BME280;54760;47.490;19.030;2022-08-11T06:37:19;100546.28;;;32.10;25.32
67980;BME280;54760;47.490;19.030;2022-08-11T06:42:37;100544.59;;;29.83;29.14
67980;BME280;54760;47.490;19.030;2022-08-11T06:45:27;100547.47;;;29.38;29.21
67980;BME280;54760;47.490;19.030;2022-08-11T06:47:54;100538.22;;;27.88;31.61
67980;BME280;54760;47.490;19.030;2022-08-11T06:50:23;100533.22;;;27.21;33.51
67980;BME280;54760;47.490;19.030;2022-08-11T06:53:08;100535.28;;;27.21;33.08
67980;BME280;54760;47.490;19.030;2022-08-11T06:55:35;100539.66;;;26.28;34.00
67980;BME280;54760;47.490;19.030;2022-08-11T06:58:26;100545.09;;;25.87;34.84
67980;BME280;54760;47.490;19.030;2022-08-11T07:01:15;100544.06;;;25.91;34.55
67980;BME280;54760;47.490;19.030;2022-08-11T07:03:47;100541.59;;;25.70;35.38
67980;BME280;54760;47.490;19.030;2022-08-11T07:09:18;100543.34;;;25.84;35.44
67980;BME280;54760;47.490;19.030;2022-08-11T07:12:34;100538.75;;;25.76;35.52
67980;BME280;54760;47.490;19.030;2022-08-11T07:15:23;100539.00;;;25.83;35.61
67980;BME280;54760;47.490;19.030;2022-08-11T07:18:19;100533.38;;;25.95;34.48
67980;BME280;54760;47.490;19.030;2022-08-11T07:21:14;100538.41;;;26.13;34.46
67980;BME280;54760;47.490;19.030;2022-08-11T07:24:01;100538.47;;;25.91;34.47
67980;BME280;54760;47.490;19.030;2022-08-11T07:26:50;100534.09;;;25.95;34.91
67980;BME280;54760;47.490;19.030;2022-08-11T07:29:36;100538.47;;;25.91;34.28
67980;BME280;54760;47.490;19.030;2022-08-11T07:32:12;100535.41;;;26.00;35.15
67980;BME280;54760;47.490;19.030;2022-08-11T07:34:45;100536.13;;;26.06;34.32
67980;BME280;54760;47.490;19.030;2022-08-11T07:37:14;100537.03;;;26.42;33.70
67980;BME280;54760;47.490;19.030;2022-08-11T07:39:43;100538.75;;;26.50;33.21
67980;BME280;54760;47.490;19.030;2022-08-11T07:42:16;100539.84;;;26.36;33.52
67980;BME280;54760;47.490;19.030;2022-08-11T07:44:46;100539.75;;;26.58;33.35
67980;BME280;54760;47.490;19.030;2022-08-11T07:47:31;100532.88;;;26.54;32.93
67980;BME280;54760;47.490;19.030;2022-08-11T07:50:17;100533.91;;;26.51;32.65
67980;BME280;54760;47.490;19.030;2022-08-11T07:53:01;100535.16;;;26.55;32.39
67980;BME280;54760;47.490;19.030;2022-08-11T07:55:28;100524.06;;;26.74;32.50
67980;BME280;54760;47.490;19.030;2022-08-11T07:57:57;100520.12;;;26.94;31.71
67980;BME280;54760;47.490;19.030;2022-08-11T08:00:48;100527.25;;;27.00;31.41
67980;BME280;54760;47.490;19.030;2022-08-11T08:03:33;100523.38;;;27.03;31.53
67980;BME280;54760;47.490;19.030;2022-08-11T08:06:17;100520.34;;;27.01;31.49
67980;BME280;54760;47.490;19.030;2022-08-11T08:09:04;100521.56;;;27.11;31.09
67980;BME280;54760;47.490;19.030;2022-08-11T08:11:49;100520.62;;;27.28;30.79
67980;BME280;54760;47.490;19.030;2022-08-11T08:14:34;100513.22;;;27.00;30.94
67980;BME280;54760;47.490;19.030;2022-08-11T08:17:20;100512.88;;;27.39;30.88
67980;BME280;54760;47.490;19.030;2022-08-11T08:20:05;100502.53;;;27.53;30.81
67980;BME280;54760;47.490;19.030;2022-08-11T08:22:34;100505.37;;;27.96;30.39
67980;BME280;54760;47.490;19.030;2022-08-11T08:25:00;100492.38;;;28.17;30.10
67980;BME280;54760;47.490;19.030;2022-08-11T08:27:26;100498.25;;;28.19;29.60
67980;BME280;54760;47.490;19.030;2022-08-11T08:29:52;100505.63;;;28.41;29.00
67980;BME280;54760;47.490;19.030;2022-08-11T08:32:40;100508.81;;;28.51;28.63
67980;BME280;54760;47.490;19.030;2022-08-11T08:35:07;100503.91;;;28.70;28.88
67980;BME280;54760;47.490;19.030;2022-08-11T08:37:34;100500.75;;;28.79;29.08
67980;BME280;54760;47.490;19.030;2022-08-11T08:40:00;100505.94;;;28.75;28.13
67980;BME280;54760;47.490;19.030;2022-08-11T08:42:27;100499.84;;;28.33;28.95
67980;BME280;54760;47.490;19.030;2022-08-11T08:45:14;100496.19;;;28.38;29.05
67980;BME280;54760;47.490;19.030;2022-08-11T08:47:47;100496.09;;;28.81;28.20
67980;BME280;54760;47.490;19.030;2022-08-11T08:50:16;100494.66;;;28.75;29.01
67980;BME280;54760;47.490;19.030;2022-08-11T08:52:51;100488.13;;;28.99;29.00
67980;BME280;54760;47.490;19.030;2022-08-11T08:55:19;100491.91;;;28.51;29.15
67980;BME280;54760;47.490;19.030;2022-08-11T08:57:48;100486.72;;;28.92;28.49
67980;BME280;54760;47.490;19.030;2022-08-11T09:00:15;100482.78;;;28.63;29.23
67980;BME280;54760;47.490;19.030;2022-08-11T09:02:43;100484.78;;;29.00;28.37
67980;BME280;54760;47.490;19.030;2022-08-11T09:05:10;100484.53;;;28.98;28.35
67980;BME280;54760;47.490;19.030;2022-08-11T09:07:36;100478.88;;;28.85;28.15
67980;BME280;54760;47.490;19.030;2022-08-11T09:10:03;100472.28;;;28.82;28.93
67980;BME280;54760;47.490;19.030;2022-08-11T09:12:31;100468.91;;;28.65;28.22
67980;BME280;54760;47.490;19.030;2022-08-11T09:14:59;100469.31;;;28.75;28.46
67980;BME280;54760;47.490;19.030;2022-08-11T09:17:34;100472.44;;;28.15;27.47
67980;BME280;54760;47.490;19.030;2022-08-11T09:20:06;100467.28;;;28.38;26.11
67980;BME280;54760;47.490;19.030;2022-08-11T09:22:34;100453.25;;;28.51;25.86
67980;BME280;54760;47.490;19.030;2022-08-11T09:25:20;100460.09;;;28.56;25.41
67980;BME280;54760;47.490;19.030;2022-08-11T09:28:10;100453.63;;;28.61;25.24
67980;BME280;54760;47.490;19.030;2022-08-11T09:30:39;100453.72;;;28.36;25.01
67980;BME280;54760;47.490;19.030;2022-08-11T09:33:05;100449.28;;;28.60;24.37
67980;BME280;54760;47.490;19.030;2022-08-11T09:35:35;100452.97;;;28.73;24.78
67980;BME280;54760;47.490;19.030;2022-08-11T09:38:04;100442.28;;;28.98;23.48
67980;BME280;54760;47.490;19.030;2022-08-11T09:40:50;100439.88;;;29.34;22.99
67980;BME280;54760;47.490;19.030;2022-08-11T09:43:18;100432.09;;;29.53;23.22
67980;BME280;54760;47.490;19.030;2022-08-11T09:46:04;100441.50;;;29.82;22.68
67980;BME280;54760;47.490;19.030;2022-08-11T09:48:36;100429.34;;;29.87;23.79
67980;BME280;54760;47.490;19.030;2022-08-11T09:51:02;100443.09;;;29.12;24.26
67980;BME280;54760;47.490;19.030;2022-08-11T09:53:33;100435.84;;;29.29;24.10
67980;BME280;54760;47.490;19.030;2022-08-11T09:56:00;100429.78;;;29.25;24.18
67980;BME280;54760;47.490;19.030;2022-08-11T09:58:49;100428.00;;;29.09;24.63
67980;BME280;54760;47.490;19.030;2022-08-11T10:01:19;100433.37;;;28.94;24.98
67980;BME280;54760;47.490;19.030;2022-08-11T10:04:03;100434.44;;;28.78;25.24
67980;BME280;54760;47.490;19.030;2022-08-11T10:06:31;100430.25;;;28.66;25.37
67980;BME280;54760;47.490;19.030;2022-08-11T10:09:19;100429.47;;;28.84;24.95
67980;BME280;54760;47.490;19.030;2022-08-11T10:11:46;100429.03;;;28.80;26.08
67980;BME280;54760;47.490;19.030;2022-08-11T10:14:15;100428.81;;;28.59;25.99
67980;BME280;54760;47.490;19.030;2022-08-11T10:17:06;100434.22;;;28.57;26.52
67980;BME280;54760;47.490;19.030;2022-08-11T10:19:33;100428.41;;;29.32;25.40
67980;BME280;54760;47.490;19.030;2022-08-11T10:22:04;100421.97;;;29.84;24.81
67980;BME280;54760;47.490;19.030;2022-08-11T10:24:50;100418.50;;;29.52;24.94
67980;BME280;54760;47.490;19.030;2022-08-11T10:27:37;100428.31;;;29.51;24.77
67980;BME280;54760;47.490;19.030;2022-08-11T10:30:03;100422.19;;;29.73;24.21
67980;BME280;54760;47.490;19.030;2022-08-11T10:32:49;100413.94;;;29.88;27.59
67980;BME280;54760;47.490;19.030;2022-08-11T10:35:34;100407.09;;;29.97;24.39
67980;BME280;54760;47.490;19.030;2022-08-11T10:38:01;100406.69;;;29.80;24.64
67980;BME280;54760;47.490;19.030;2022-08-11T10:40:26;100404.72;;;29.75;24.05
67980;BME280;54760;47.490;19.030;2022-08-11T10:42:56;100396.56;;;29.97;24.01
67980;BME280;54760;47.490;19.030;2022-08-11T10:45:36;100399.09;;;30.22;23.89
67980;BME280;54760;47.490;19.030;2022-08-11T10:48:21;100397.09;;;30.09;23.91
67980;BME280;54760;47.490;19.030;2022-08-11T10:50:49;100394.62;;;30.05;23.65
67980;BME280;54760;47.490;19.030;2022-08-11T10:53:35;100392.84;;;30.36;24.21
67980;BME280;54760;47.490;19.030;2022-08-11T10:56:20;100396.50;;;30.24;23.21
67980;BME280;54760;47.490;19.030;2022-08-11T10:59:07;100390.84;;;30.58;22.53
67980;BME280;54760;47.490;19.030;2022-08-11T11:01:40;100381.94;;;30.74;22.46
67980;BME280;54760;47.490;19.030;2022-08-11T11:04:10;100377.84;;;30.41;22.70
67980;BME280;54760;47.490;19.030;2022-08-11T11:10:02;100375.78;;;30.42;24.41
67980;BME280;54760;47.490;19.030;2022-08-11T11:13:00;100376.47;;;30.35;23.18
67980;BME280;54760;47.490;19.030;2022-08-11T11:15:45;100371.16;;;30.31;22.24
67980;BME280;54760;47.490;19.030;2022-08-11T11:18:35;100362.59;;;30.58;21.16
67980;BME280;54760;47.490;19.030;2022-08-11T11:21:09;100355.78;;;30.53;21.43
67980;BME280;54760;47.490;19.030;2022-08-11T11:26:47;100352.47;;;30.62;21.56
67980;BME280;54760;47.490;19.030;2022-08-11T11:37:39;100335.28;;;30.81;19.67
67980;BME280;54760;47.490;19.030;2022-08-11T11:40:09;100338.00;;;30.94;20.08
67980;BME280;54760;47.490;19.030;2022-08-11T11:42:35;100327.44;;;30.94;19.32
67980;BME280;54760;47.490;19.030;2022-08-11T11:45:02;100325.41;;;30.74;19.87
67980;BME280;54760;47.490;19.030;2022-08-11T11:47:29;100325.59;;;30.97;19.81
67980;BME280;54760;47.490;19.030;2022-08-11T11:49:56;100319.38;;;30.70;20.33
67980;BME280;54760;47.490;19.030;2022-08-11T11:52:22;100320.09;;;30.63;20.48
67980;BME280;54760;47.490;19.030;2022-08-11T11:54:51;100322.88;;;29.88;21.28
67980;BME280;54760;47.490;19.030;2022-08-11T11:57:19;100320.12;;;29.61;21.87
67980;BME280;54760;47.490;19.030;2022-08-11T12:00:06;100319.16;;;29.59;22.06
67980;BME280;54760;47.490;19.030;2022-08-11T12:02:51;100316.66;;;29.29;22.48
67980;BME280;54760;47.490;19.030;2022-08-11T12:05:17;100318.41;;;29.58;22.91
67980;BME280;54760;47.490;19.030;2022-08-11T12:07:43;100318.94;;;29.57;22.65
67980;BME280;54760;47.490;19.030;2022-08-11T12:10:29;100312.44;;;29.22;22.93
67980;BME280;54760;47.490;19.030;2022-08-11T12:12:58;100315.69;;;29.53;23.19
67980;BME280;54760;47.490;19.030;2022-08-11T12:15:43;100307.06;;;29.71;22.86
67980;BME280;54760;47.490;19.030;2022-08-11T12:18:09;100308.47;;;29.78;23.27
67980;BME280;54760;47.490;19.030;2022-08-11T12:20:36;100308.66;;;29.93;22.86
67980;BME280;54760;47.490;19.030;2022-08-11T12:23:02;100301.13;;;30.09;22.29
67980;BME280;54760;47.490;19.030;2022-08-11T12:25:47;100297.38;;;30.48;21.49
67980;BME280;54760;47.490;19.030;2022-08-11T12:28:32;100300.09;;;30.61;21.15
67980;BME280;54760;47.490;19.030;2022-08-11T12:30:58;100293.53;;;30.94;21.18
67980;BME280;54760;47.490;19.030;2022-08-11T12:33:24;100292.09;;;31.01;22.10
67980;BME280;54760;47.490;19.030;2022-08-11T12:35:55;100293.63;;;30.53;21.67
67980;BME280;54760;47.490;19.030;2022-08-11T12:38:22;100290.66;;;30.59;21.95
67980;BME280;54760;47.490;19.030;2022-08-11T12:40:49;100284.91;;;31.00;21.89
67980;BME280;54760;47.490;19.030;2022-08-11T12:43:34;100296.88;;;31.14;21.80
67980;BME280;54760;47.490;19.030;2022-08-11T12:46:21;100281.44;;;30.86;21.43
67980;BME280;54760;47.490;19.030;2022-08-11T12:48:50;100279.53;;;30.81;21.43
67980;BME280;54760;47.490;19.030;2022-08-11T12:51:41;100277.31;;;30.59;21.45
67980;BME280;54760;47.490;19.030;2022-08-11T12:55:04;100280.94;;;30.67;21.45
67980;BME280;54760;47.490;19.030;2022-08-11T12:57:46;100276.59;;;30.66;21.98
67980;BME280;54760;47.490;19.030;2022-08-11T13:00:31;100275.31;;;30.46;21.62
67980;BME280;54760;47.490;19.030;2022-08-11T13:03:19;100276.12;;;30.54;21.89
67980;BME280;54760;47.490;19.030;2022-08-11T13:06:04;100263.53;;;30.35;21.54
67980;BME280;54760;47.490;19.030;2022-08-11T13:08:33;100261.37;;;30.28;21.66
67980;BME280;54760;47.490;19.030;2022-08-11T13:11:00;100254.63;;;29.89;22.05
67980;BME280;54760;47.490;19.030;2022-08-11T13:13:47;100258.81;;;29.96;21.97
67980;BME280;54760;47.490;19.030;2022-08-11T13:16:13;100252.38;;;29.75;22.70
67980;BME280;54760;47.490;19.030;2022-08-11T13:18:41;100257.66;;;29.91;22.64
67980;BME280;54760;47.490;19.030;2022-08-11T13:21:09;100246.78;;;30.37;22.06
67980;BME280;54760;47.490;19.030;2022-08-11T13:23:35;100246.78;;;30.37;22.03
67980;BME280;54760;47.490;19.030;2022-08-11T13:26:02;100251.97;;;30.74;23.70
67980;BME280;54760;47.490;19.030;2022-08-11T13:28:28;100242.78;;;30.53;22.45
67980;BME280;54760;47.490;19.030;2022-08-11T13:30:54;100253.69;;;30.07;24.00
67980;BME280;54760;47.490;19.030;2022-08-11T13:33:43;100245.62;;;29.91;24.33
67980;BME280;54760;47.490;19.030;2022-08-11T13:36:11;100246.94;;;29.77;24.56
67980;BME280;54760;47.490;19.030;2022-08-11T13:38:37;100247.28;;;29.73;24.16
67980;BME280;54760;47.490;19.030;2022-08-11T13:41:05;100246.41;;;29.78;24.54
67980;BME280;54760;47.490;19.030;2022-08-11T13:43:51;100245.28;;;29.60;24.71
67980;BME280;54760;47.490;19.030;2022-08-11T13:46:18;100243.25;;;29.48;24.94
67980;BME280;54760;47.490;19.030;2022-08-11T13:48:45;100241.91;;;29.62;25.04
67980;BME280;54760;47.490;19.030;2022-08-11T13:51:11;100241.22;;;29.69;24.94
67980;BME280;54760;47.490;19.030;2022-08-11T13:53:59;100233.00;;;29.71;25.21
67980;BME280;54760;47.490;19.030;2022-08-11T13:56:26;100237.34;;;29.59;25.24
67980;BME280;54760;47.490;19.030;2022-08-11T13:58:53;100234.16;;;29.42;25.58
67980;BME280;54760;47.490;19.030;2022-08-11T14:01:19;100232.44;;;29.25;25.40
67980;BME280;54760;47.490;19.030;2022-08-11T14:03:46;100237.19;;;29.44;25.33
67980;BME280;54760;47.490;19.030;2022-08-11T14:06:14;100227.00;;;29.27;25.26
67980;BME280;54760;47.490;19.030;2022-08-11T14:08:42;100234.16;;;29.28;25.76
67980;BME280;54760;47.490;19.030;2022-08-11T14:11:09;100229.59;;;29.39;25.21
67980;BME280;54760;47.490;19.030;2022-08-11T14:13:53;100229.81;;;29.27;25.27
67980;BME280;54760;47.490;19.030;2022-08-11T14:16:25;100226.94;;;29.07;25.69
67980;BME280;54760;47.490;19.030;2022-08-11T14:18:53;100222.44;;;29.38;25.43
67980;BME280;54760;47.490;19.030;2022-08-11T14:21:23;100208.91;;;29.70;25.10
67980;BME280;54760;47.490;19.030;2022-08-11T14:24:08;100221.25;;;29.67;24.85
67980;BME280;54760;47.490;19.030;2022-08-11T14:26:36;100218.91;;;29.58;24.83
67980;BME280;54760;47.490;19.030;2022-08-11T14:29:12;100220.84;;;29.63;24.92
67980;BME280;54760;47.490;19.030;2022-08-11T14:31:46;100223.56;;;29.68;24.57
67980;BME280;54760;47.490;19.030;2022-08-11T14:34:13;100215.03;;;29.61;24.54
67980;BME280;54760;47.490;19.030;2022-08-11T14:36:44;100215.53;;;29.93;30.18
67980;BME280;54760;47.490;19.030;2022-08-11T14:39:14;100206.22;;;29.85;24.17
67980;BME280;54760;47.490;19.030;2022-08-11T14:41:46;100208.47;;;30.00;24.24
67980;BME280;54760;47.490;19.030;2022-08-11T14:44:33;100210.69;;;29.60;24.21
67980;BME280;54760;47.490;19.030;2022-08-11T14:47:19;100213.09;;;29.56;24.21
67980;BME280;54760;47.490;19.030;2022-08-11T14:49:45;100198.81;;;29.41;24.74
67980;BME280;54760;47.490;19.030;2022-08-11T14:52:14;100202.16;;;29.73;24.30
67980;BME280;54760;47.490;19.030;2022-08-11T14:54:46;100208.06;;;29.62;24.44
67980;BME280;54760;47.490;19.030;2022-08-11T14:57:32;100199.34;;;29.39;24.12
67980;BME280;54760;47.490;19.030;2022-08-11T15:00:00;100204.66;;;29.43;24.30
67980;BME280;54760;47.490;19.030;2022-08-11T15:02:28;100198.19;;;29.35;24.07
67980;BME280;54760;47.490;19.030;2022-08-11T15:05:12;100201.06;;;29.42;27.79
67980;BME280;54760;47.490;19.030;2022-08-11T15:07:39;100202.56;;;29.56;25.46
67980;BME280;54760;47.490;19.030;2022-08-11T15:10:07;100204.66;;;29.43;23.80
67980;BME280;54760;47.490;19.030;2022-08-11T15:12:34;100209.34;;;29.40;24.06
67980;BME280;54760;47.490;19.030;2022-08-11T15:15:02;100210.53;;;29.18;24.30
67980;BME280;54760;47.490;19.030;2022-08-11T15:17:57;100200.38;;;29.15;24.30
67980;BME280;54760;47.490;19.030;2022-08-11T15:20:25;100208.81;;;29.15;24.26
67980;BME280;54760;47.490;19.030;2022-08-11T15:23:10;100207.31;;;29.14;24.42
67980;BME280;54760;47.490;19.030;2022-08-11T15:25:57;100202.59;;;28.83;24.81
67980;BME280;54760;47.490;19.030;2022-08-11T15:28:26;100204.50;;;28.62;24.93
67980;BME280;54760;47.490;19.030;2022-08-11T15:31:11;100206.78;;;28.63;24.93
67980;BME280;54760;47.490;19.030;2022-08-11T15:34:02;100210.34;;;28.51;24.97
67980;BME280;54760;47.490;19.030;2022-08-11T15:36:48;100206.00;;;28.36;25.32
67980;BME280;54760;47.490;19.030;2022-08-11T15:39:49;100207.41;;;28.43;25.43
67980;BME280;54760;47.490;19.030;2022-08-11T15:43:06;100199.22;;;28.58;25.39
67980;BME280;54760;47.490;19.030;2022-08-11T15:45:51;100199.84;;;28.51;25.73
67980;BME280;54760;47.490;19.030;2022-08-11T15:48:34;100202.03;;;28.58;25.39
67980;BME280;54760;47.490;19.030;2022-08-11T15:51:10;100193.25;;;28.62;25.09
67980;BME280;54760;47.490;19.030;2022-08-11T15:53:47;100194.34;;;28.72;25.06
67980;BME280;54760;47.490;19.030;2022-08-11T15:56:15;100185.87;;;28.59;24.92
67980;BME280;54760;47.490;19.030;2022-08-11T15:58:45;100187.38;;;28.60;25.43
67980;BME280;54760;47.490;19.030;2022-08-11T16:01:30;100191.16;;;28.23;25.56
67980;BME280;54760;47.490;19.030;2022-08-11T16:04:16;100194.06;;;28.30;25.54
67980;BME280;54760;47.490;19.030;2022-08-11T16:09:39;100188.91;;;28.02;26.01
67980;BME280;54760;47.490;19.030;2022-08-11T16:12:12;100191.38;;;27.93;26.42
67980;BME280;54760;47.490;19.030;2022-08-11T16:14:43;100186.78;;;27.77;27.37
67980;BME280;54760;47.490;19.030;2022-08-11T16:17:49;100186.28;;;27.60;27.84
67980;BME280;54760;47.490;19.030;2022-08-11T16:20:18;100186.91;;;27.52;28.32
67980;BME280;54760;47.490;19.030;2022-08-11T16:22:45;100182.47;;;27.38;28.84
67980;BME280;54760;47.490;19.030;2022-08-11T16:25:23;100183.56;;;27.54;28.54
67980;BME280;54760;47.490;19.030;2022-08-11T16:27:52;100184.62;;;27.51;28.71
67980;BME280;54760;47.490;19.030;2022-08-11T16:30:19;100190.38;;;27.40;28.87